sensor_id;sensor_type;location;lat;lon;timestamp;P1;durP1;ratioP1;P2;durP2;ratioP2
62050;SDS011;48008;51.204;6.766;2022-10-16T00:01:14;11.75;;;3.33;;
62050;SDS011;48008;51.204;6.766;2022-10-16T00:03:43;11.45;;;3.38;;
62050;SDS011;48008;51.204;6.766;2022-10-16T00:06:10;15.10;;;3.78;;
62050;SDS011;48008;51.204;6.766;2022-10-16T00:08:38;9.25;;;3.47;;
62050;SDS011;48008;51.204;6.766;2022-10-16T00:11:06;10.93;;;3.88;;
62050;SDS011;48008;51.204;6.766;2022-10-16T00:13:36;8.60;;;3.38;;
62050;SDS011;48008;51.204;6.766;2022-10-16T00:16:04;7.70;;;3.13;;
62050;SDS011;48008;51.204;6.766;2022-10-16T00:18:31;12.20;;;3.30;;
62050;SDS011;48008;51.204;6.766;2022-10-16T00:21:02;10.20;;;3.30;;
62050;SDS011;48008;51.204;6.766;2022-10-16T00:23:33;15.57;;;3.65;;
62050;SDS011;48008;51.204;6.766;2022-10-16T00:26:01;13.00;;;3.30;;
62050;SDS011;48008;51.204;6.766;2022-10-16T00:28:31;10.43;;;3.35;;
62050;SDS011;48008;51.204;6.766;2022-10-16T00:30:58;13.15;;;3.10;;
62050;SDS011;48008;51.204;6.766;2022-10-16T00:33:25;10.18;;;3.25;;
62050;SDS011;48008;51.204;6.766;2022-10-16T00:35:51;9.45;;;3.00;;
62050;SDS011;48008;51.204;6.766;2022-10-16T00:38:18;11.23;;;3.17;;
62050;SDS011;48008;51.204;6.766;2022-10-16T00:40:45;12.27;;;2.97;;
62050;SDS011;48008;51.204;6.766;2022-10-16T00:43:13;15.38;;;4.35;;
62050;SDS011;48008;51.204;6.766;2022-10-16T00:45:41;9.85;;;3.17;;
62050;SDS011;48008;51.204;6.766;2022-10-16T00:48:10;9.80;;;2.90;;
62050;SDS011;48008;51.204;6.766;2022-10-16T00:50:38;9.80;;;2.85;;
62050;SDS011;48008;51.204;6.766;2022-10-16T00:53:08;15.25;;;3.40;;
62050;SDS011;48008;51.204;6.766;2022-10-16T00:55:35;7.40;;;2.60;;
62050;SDS011;48008;51.204;6.766;2022-10-16T00:58:03;10.38;;;2.97;;
62050;SDS011;48008;51.204;6.766;2022-10-16T01:00:30;9.05;;;2.90;;
62050;SDS011;48008;51.204;6.766;2022-10-16T01:02:58;10.50;;;3.10;;
62050;SDS011;48008;51.204;6.766;2022-10-16T01:05:29;11.90;;;3.35;;
62050;SDS011;48008;51.204;6.766;2022-10-16T01:08:04;11.63;;;3.03;;
62050;SDS011;48008;51.204;6.766;2022-10-16T01:10:44;10.70;;;3.17;;
62050;SDS011;48008;51.204;6.766;2022-10-16T01:13:23;9.80;;;3.17;;
62050;SDS011;48008;51.204;6.766;2022-10-16T01:15:56;10.45;;;3.00;;
62050;SDS011;48008;51.204;6.766;2022-10-16T01:18:34;8.57;;;2.85;;
62050;SDS011;48008;51.204;6.766;2022-10-16T01:21:31;9.48;;;3.33;;
62050;SDS011;48008;51.204;6.766;2022-10-16T01:24:06;11.38;;;3.15;;
62050;SDS011;48008;51.204;6.766;2022-10-16T01:29:56;9.05;;;3.38;;
62050;SDS011;48008;51.204;6.766;2022-10-16T01:32:40;17.60;;;4.03;;
62050;SDS011;48008;51.204;6.766;2022-10-16T01:35:21;10.95;;;4.32;;
62050;SDS011;48008;51.204;6.766;2022-10-16T01:38:03;11.45;;;4.38;;
62050;SDS011;48008;51.204;6.766;2022-10-16T01:40:37;15.48;;;4.65;;
62050;SDS011;48008;51.204;6.766;2022-10-16T01:43:08;13.73;;;4.38;;
62050;SDS011;48008;51.204;6.766;2022-10-16T01:45:42;15.02;;;4.43;;
62050;SDS011;48008;51.204;6.766;2022-10-16T01:48:12;16.42;;;4.50;;
62050;SDS011;48008;51.204;6.766;2022-10-16T01:50:43;12.07;;;4.20;;
62050;SDS011;48008;51.204;6.766;2022-10-16T01:53:16;11.82;;;4.47;;
62050;SDS011;48008;51.204;6.766;2022-10-16T01:55:44;10.88;;;3.90;;
62050;SDS011;48008;51.204;6.766;2022-10-16T01:58:14;13.60;;;3.83;;
62050;SDS011;48008;51.204;6.766;2022-10-16T02:00:42;9.70;;;3.45;;
62050;SDS011;48008;51.204;6.766;2022-10-16T02:03:13;19.80;;;4.03;;
62050;SDS011;48008;51.204;6.766;2022-10-16T02:05:45;11.52;;;3.88;;
62050;SDS011;48008;51.204;6.766;2022-10-16T02:08:16;11.00;;;3.63;;
62050;SDS011;48008;51.204;6.766;2022-10-16T02:10:43;10.68;;;4.72;;
62050;SDS011;48008;51.204;6.766;2022-10-16T02:13:16;7.80;;;3.40;;
62050;SDS011;48008;51.204;6.766;2022-10-16T02:16:02;9.45;;;3.40;;
62050;SDS011;48008;51.204;6.766;2022-10-16T02:18:28;14.35;;;4.10;;
62050;SDS011;48008;51.204;6.766;2022-10-16T02:20:58;13.93;;;3.90;;
62050;SDS011;48008;51.204;6.766;2022-10-16T02:23:31;8.98;;;3.90;;
62050;SDS011;48008;51.204;6.766;2022-10-16T02:26:07;11.70;;;3.95;;
62050;SDS011;48008;51.204;6.766;2022-10-16T02:28:40;14.45;;;4.53;;
62050;SDS011;48008;51.204;6.766;2022-10-16T02:33:40;8.05;;;3.38;;
62050;SDS011;48008;51.204;6.766;2022-10-16T02:36:09;9.38;;;3.20;;
62050;SDS011;48008;51.204;6.766;2022-10-16T02:38:37;8.68;;;3.05;;
62050;SDS011;48008;51.204;6.766;2022-10-16T02:41:05;8.95;;;3.10;;
62050;SDS011;48008;51.204;6.766;2022-10-16T02:43:32;10.68;;;3.20;;
62050;SDS011;48008;51.204;6.766;2022-10-16T02:46:00;7.10;;;2.88;;
62050;SDS011;48008;51.204;6.766;2022-10-16T02:48:26;8.30;;;3.10;;
62050;SDS011;48008;51.204;6.766;2022-10-16T02:50:53;8.73;;;3.03;;
62050;SDS011;48008;51.204;6.766;2022-10-16T02:53:20;8.40;;;2.63;;
62050;SDS011;48008;51.204;6.766;2022-10-16T02:55:46;7.22;;;3.00;;
62050;SDS011;48008;51.204;6.766;2022-10-16T02:58:13;8.18;;;3.03;;
62050;SDS011;48008;51.204;6.766;2022-10-16T03:00:40;7.10;;;2.80;;
62050;SDS011;48008;51.204;6.766;2022-10-16T03:03:06;10.23;;;2.85;;
62050;SDS011;48008;51.204;6.766;2022-10-16T03:05:33;7.03;;;2.60;;
62050;SDS011;48008;51.204;6.766;2022-10-16T03:08:00;9.75;;;2.90;;
62050;SDS011;48008;51.204;6.766;2022-10-16T03:10:27;9.85;;;2.90;;
62050;SDS011;48008;51.204;6.766;2022-10-16T03:12:53;6.25;;;2.70;;
62050;SDS011;48008;51.204;6.766;2022-10-16T03:15:20;7.03;;;2.80;;
62050;SDS011;48008;51.204;6.766;2022-10-16T03:17:47;7.72;;;2.95;;
62050;SDS011;48008;51.204;6.766;2022-10-16T03:20:13;10.55;;;3.00;;
62050;SDS011;48008;51.204;6.766;2022-10-16T03:22:40;10.27;;;3.00;;
62050;SDS011;48008;51.204;6.766;2022-10-16T03:25:07;6.00;;;2.58;;
62050;SDS011;48008;51.204;6.766;2022-10-16T03:27:34;7.80;;;3.10;;
62050;SDS011;48008;51.204;6.766;2022-10-16T03:30:01;10.30;;;2.90;;
62050;SDS011;48008;51.204;6.766;2022-10-16T03:32:28;8.30;;;2.90;;
62050;SDS011;48008;51.204;6.766;2022-10-16T03:34:55;7.55;;;3.05;;
62050;SDS011;48008;51.204;6.766;2022-10-16T03:37:23;9.75;;;2.80;;
62050;SDS011;48008;51.204;6.766;2022-10-16T03:39:50;9.77;;;3.03;;
62050;SDS011;48008;51.204;6.766;2022-10-16T03:42:17;8.35;;;2.67;;
62050;SDS011;48008;51.204;6.766;2022-10-16T03:44:44;7.05;;;2.90;;
62050;SDS011;48008;51.204;6.766;2022-10-16T03:47:11;7.15;;;2.60;;
62050;SDS011;48008;51.204;6.766;2022-10-16T03:49:38;9.93;;;2.80;;
62050;SDS011;48008;51.204;6.766;2022-10-16T03:52:04;8.55;;;2.70;;
62050;SDS011;48008;51.204;6.766;2022-10-16T03:54:31;6.50;;;2.60;;
62050;SDS011;48008;51.204;6.766;2022-10-16T03:56:58;7.32;;;2.50;;
62050;SDS011;48008;51.204;6.766;2022-10-16T03:59:25;6.03;;;2.88;;
62050;SDS011;48008;51.204;6.766;2022-10-16T04:01:52;7.30;;;2.83;;
62050;SDS011;48008;51.204;6.766;2022-10-16T04:04:19;5.63;;;2.50;;
62050;SDS011;48008;51.204;6.766;2022-10-16T04:06:45;7.93;;;2.70;;
62050;SDS011;48008;51.204;6.766;2022-10-16T04:09:12;7.13;;;2.60;;
62050;SDS011;48008;51.204;6.766;2022-10-16T04:11:39;8.00;;;2.58;;
62050;SDS011;48008;51.204;6.766;2022-10-16T04:14:05;8.13;;;2.78;;
62050;SDS011;48008;51.204;6.766;2022-10-16T04:16:32;9.45;;;3.00;;
62050;SDS011;48008;51.204;6.766;2022-10-16T04:18:59;7.88;;;2.90;;
62050;SDS011;48008;51.204;6.766;2022-10-16T04:21:25;6.65;;;2.80;;
62050;SDS011;48008;51.204;6.766;2022-10-16T04:23:52;9.85;;;2.95;;
62050;SDS011;48008;51.204;6.766;2022-10-16T04:26:19;8.23;;;2.83;;
62050;SDS011;48008;51.204;6.766;2022-10-16T04:28:46;5.97;;;2.53;;
62050;SDS011;48008;51.204;6.766;2022-10-16T04:31:13;9.25;;;2.65;;
62050;SDS011;48008;51.204;6.766;2022-10-16T04:33:41;8.80;;;2.53;;
62050;SDS011;48008;51.204;6.766;2022-10-16T04:36:09;7.95;;;2.60;;
62050;SDS011;48008;51.204;6.766;2022-10-16T04:38:35;6.13;;;2.40;;
62050;SDS011;48008;51.204;6.766;2022-10-16T04:41:03;8.02;;;2.30;;
62050;SDS011;48008;51.204;6.766;2022-10-16T04:43:30;8.20;;;2.40;;
62050;SDS011;48008;51.204;6.766;2022-10-16T04:45:57;9.15;;;2.47;;
62050;SDS011;48008;51.204;6.766;2022-10-16T04:48:23;7.20;;;2.35;;
62050;SDS011;48008;51.204;6.766;2022-10-16T04:50:50;5.43;;;2.22;;
62050;SDS011;48008;51.204;6.766;2022-10-16T04:53:18;9.65;;;2.60;;
62050;SDS011;48008;51.204;6.766;2022-10-16T04:55:45;5.22;;;2.30;;
62050;SDS011;48008;51.204;6.766;2022-10-16T04:58:12;7.60;;;2.33;;
62050;SDS011;48008;51.204;6.766;2022-10-16T05:00:39;5.88;;;2.40;;
62050;SDS011;48008;51.204;6.766;2022-10-16T05:03:05;5.95;;;2.50;;
62050;SDS011;48008;51.204;6.766;2022-10-16T05:05:35;6.25;;;2.40;;
62050;SDS011;48008;51.204;6.766;2022-10-16T05:08:02;9.93;;;2.30;;
62050;SDS011;48008;51.204;6.766;2022-10-16T05:10:29;7.32;;;2.13;;
62050;SDS011;48008;51.204;6.766;2022-10-16T05:12:56;5.60;;;2.47;;
62050;SDS011;48008;51.204;6.766;2022-10-16T05:15:22;7.00;;;2.08;;
62050;SDS011;48008;51.204;6.766;2022-10-16T05:17:53;9.00;;;2.10;;
62050;SDS011;48008;51.204;6.766;2022-10-16T05:20:20;5.35;;;2.20;;
62050;SDS011;48008;51.204;6.766;2022-10-16T05:22:47;6.28;;;2.08;;
62050;SDS011;48008;51.204;6.766;2022-10-16T05:25:14;5.30;;;2.42;;
62050;SDS011;48008;51.204;6.766;2022-10-16T05:27:40;6.07;;;2.15;;
62050;SDS011;48008;51.204;6.766;2022-10-16T05:30:07;4.97;;;2.10;;
62050;SDS011;48008;51.204;6.766;2022-10-16T05:32:35;5.82;;;2.30;;
62050;SDS011;48008;51.204;6.766;2022-10-16T05:35:02;6.53;;;2.30;;
62050;SDS011;48008;51.204;6.766;2022-10-16T05:37:29;6.10;;;2.25;;
62050;SDS011;48008;51.204;6.766;2022-10-16T05:39:56;5.55;;;2.10;;
62050;SDS011;48008;51.204;6.766;2022-10-16T05:42:22;8.60;;;3.35;;
62050;SDS011;48008;51.204;6.766;2022-10-16T05:44:49;4.70;;;2.15;;
62050;SDS011;48008;51.204;6.766;2022-10-16T05:47:16;6.32;;;2.25;;
62050;SDS011;48008;51.204;6.766;2022-10-16T05:49:42;6.53;;;2.60;;
62050;SDS011;48008;51.204;6.766;2022-10-16T05:52:09;7.47;;;2.45;;
62050;SDS011;48008;51.204;6.766;2022-10-16T05:54:35;7.82;;;2.63;;
62050;SDS011;48008;51.204;6.766;2022-10-16T05:57:02;9.80;;;2.63;;
62050;SDS011;48008;51.204;6.766;2022-10-16T05:59:29;7.05;;;2.50;;
62050;SDS011;48008;51.204;6.766;2022-10-16T06:01:56;7.43;;;2.55;;
62050;SDS011;48008;51.204;6.766;2022-10-16T06:04:23;6.85;;;2.63;;
62050;SDS011;48008;51.204;6.766;2022-10-16T06:06:49;8.57;;;2.88;;
62050;SDS011;48008;51.204;6.766;2022-10-16T06:09:16;7.72;;;2.63;;
62050;SDS011;48008;51.204;6.766;2022-10-16T06:11:43;5.80;;;2.58;;
62050;SDS011;48008;51.204;6.766;2022-10-16T06:14:09;7.47;;;2.70;;
62050;SDS011;48008;51.204;6.766;2022-10-16T06:16:36;11.13;;;3.15;;
62050;SDS011;48008;51.204;6.766;2022-10-16T06:19:04;8.90;;;3.28;;
62050;SDS011;48008;51.204;6.766;2022-10-16T06:21:34;7.28;;;2.88;;
62050;SDS011;48008;51.204;6.766;2022-10-16T06:24:01;10.25;;;3.33;;
62050;SDS011;48008;51.204;6.766;2022-10-16T06:26:28;11.45;;;3.28;;
62050;SDS011;48008;51.204;6.766;2022-10-16T06:28:57;7.63;;;3.08;;
62050;SDS011;48008;51.204;6.766;2022-10-16T06:31:26;14.18;;;2.85;;
62050;SDS011;48008;51.204;6.766;2022-10-16T06:33:56;8.95;;;2.90;;
62050;SDS011;48008;51.204;6.766;2022-10-16T06:36:24;8.63;;;2.90;;
62050;SDS011;48008;51.204;6.766;2022-10-16T06:38:51;7.90;;;2.70;;
62050;SDS011;48008;51.204;6.766;2022-10-16T06:41:20;8.20;;;3.70;;
62050;SDS011;48008;51.204;6.766;2022-10-16T06:43:47;9.80;;;3.80;;
62050;SDS011;48008;51.204;6.766;2022-10-16T06:46:16;13.98;;;3.25;;
62050;SDS011;48008;51.204;6.766;2022-10-16T06:48:46;6.95;;;3.20;;
62050;SDS011;48008;51.204;6.766;2022-10-16T06:51:14;8.48;;;2.75;;
62050;SDS011;48008;51.204;6.766;2022-10-16T06:53:43;9.70;;;2.80;;
62050;SDS011;48008;51.204;6.766;2022-10-16T06:56:27;6.05;;;2.50;;
62050;SDS011;48008;51.204;6.766;2022-10-16T06:58:55;13.38;;;2.60;;
62050;SDS011;48008;51.204;6.766;2022-10-16T07:01:23;6.63;;;2.40;;
62050;SDS011;48008;51.204;6.766;2022-10-16T07:03:51;10.63;;;3.67;;
62050;SDS011;48008;51.204;6.766;2022-10-16T07:06:18;6.20;;;2.53;;
62050;SDS011;48008;51.204;6.766;2022-10-16T07:08:47;6.82;;;2.70;;
62050;SDS011;48008;51.204;6.766;2022-10-16T07:11:15;6.45;;;2.75;;
62050;SDS011;48008;51.204;6.766;2022-10-16T07:13:45;11.80;;;2.58;;
62050;SDS011;48008;51.204;6.766;2022-10-16T07:16:14;8.70;;;2.80;;
62050;SDS011;48008;51.204;6.766;2022-10-16T07:18:43;10.38;;;3.35;;
62050;SDS011;48008;51.204;6.766;2022-10-16T07:21:13;11.15;;;3.88;;
62050;SDS011;48008;51.204;6.766;2022-10-16T07:23:41;8.85;;;2.60;;
62050;SDS011;48008;51.204;6.766;2022-10-16T07:26:09;7.07;;;2.50;;
62050;SDS011;48008;51.204;6.766;2022-10-16T07:28:36;7.43;;;2.67;;
62050;SDS011;48008;51.204;6.766;2022-10-16T07:31:04;6.50;;;2.60;;
62050;SDS011;48008;51.204;6.766;2022-10-16T07:33:33;6.95;;;2.85;;
62050;SDS011;48008;51.204;6.766;2022-10-16T07:36:01;7.47;;;2.60;;
62050;SDS011;48008;51.204;6.766;2022-10-16T07:38:28;7.40;;;2.85;;
62050;SDS011;48008;51.204;6.766;2022-10-16T07:40:56;6.40;;;2.72;;
62050;SDS011;48008;51.204;6.766;2022-10-16T07:43:25;6.68;;;2.65;;
62050;SDS011;48008;51.204;6.766;2022-10-16T07:45:52;8.65;;;2.90;;
62050;SDS011;48008;51.204;6.766;2022-10-16T07:48:19;12.32;;;3.05;;
62050;SDS011;48008;51.204;6.766;2022-10-16T07:50:46;7.40;;;2.85;;
62050;SDS011;48008;51.204;6.766;2022-10-16T07:53:13;8.13;;;2.70;;
62050;SDS011;48008;51.204;6.766;2022-10-16T07:55:40;8.02;;;3.00;;
62050;SDS011;48008;51.204;6.766;2022-10-16T07:58:07;10.23;;;3.20;;
62050;SDS011;48008;51.204;6.766;2022-10-16T08:00:35;8.05;;;2.83;;
62050;SDS011;48008;51.204;6.766;2022-10-16T08:03:03;7.65;;;2.75;;
62050;SDS011;48008;51.204;6.766;2022-10-16T08:05:32;9.07;;;2.90;;
62050;SDS011;48008;51.204;6.766;2022-10-16T08:08:01;13.45;;;3.05;;
62050;SDS011;48008;51.204;6.766;2022-10-16T08:10:28;10.02;;;2.70;;
62050;SDS011;48008;51.204;6.766;2022-10-16T08:12:55;10.18;;;2.63;;
62050;SDS011;48008;51.204;6.766;2022-10-16T08:15:22;8.05;;;2.90;;
62050;SDS011;48008;51.204;6.766;2022-10-16T08:17:57;8.15;;;2.75;;
62050;SDS011;48008;51.204;6.766;2022-10-16T08:20:26;11.65;;;3.08;;
62050;SDS011;48008;51.204;6.766;2022-10-16T08:22:53;9.65;;;2.83;;
62050;SDS011;48008;51.204;6.766;2022-10-16T08:25:21;6.65;;;2.80;;
62050;SDS011;48008;51.204;6.766;2022-10-16T08:27:49;9.55;;;2.83;;
62050;SDS011;48008;51.204;6.766;2022-10-16T08:30:17;7.90;;;2.70;;
62050;SDS011;48008;51.204;6.766;2022-10-16T08:32:45;11.73;;;3.20;;
62050;SDS011;48008;51.204;6.766;2022-10-16T08:35:12;12.65;;;3.08;;
62050;SDS011;48008;51.204;6.766;2022-10-16T08:37:40;13.02;;;3.90;;
62050;SDS011;48008;51.204;6.766;2022-10-16T08:40:13;10.20;;;2.97;;
62050;SDS011;48008;51.204;6.766;2022-10-16T08:42:51;8.57;;;2.50;;
62050;SDS011;48008;51.204;6.766;2022-10-16T08:48:47;6.65;;;2.25;;
62050;SDS011;48008;51.204;6.766;2022-10-16T08:51:29;8.52;;;2.65;;
62050;SDS011;48008;51.204;6.766;2022-10-16T08:53:59;8.40;;;2.20;;
62050;SDS011;48008;51.204;6.766;2022-10-16T08:56:29;8.05;;;2.40;;
62050;SDS011;48008;51.204;6.766;2022-10-16T08:58:57;9.65;;;2.33;;
62050;SDS011;48008;51.204;6.766;2022-10-16T09:01:28;7.78;;;2.55;;
62050;SDS011;48008;51.204;6.766;2022-10-16T09:06:45;6.30;;;2.10;;
62050;SDS011;48008;51.204;6.766;2022-10-16T09:12:17;6.13;;;2.03;;
62050;SDS011;48008;51.204;6.766;2022-10-16T09:14:54;7.03;;;2.13;;
62050;SDS011;48008;51.204;6.766;2022-10-16T09:17:49;9.23;;;1.80;;
62050;SDS011;48008;51.204;6.766;2022-10-16T09:20:42;7.93;;;1.80;;
62050;SDS011;48008;51.204;6.766;2022-10-16T09:23:17;6.72;;;1.63;;
62050;SDS011;48008;51.204;6.766;2022-10-16T09:25:49;8.40;;;1.70;;
62050;SDS011;48008;51.204;6.766;2022-10-16T09:28:17;12.20;;;2.38;;
62050;SDS011;48008;51.204;6.766;2022-10-16T09:30:45;8.20;;;1.70;;
62050;SDS011;48008;51.204;6.766;2022-10-16T09:33:15;7.50;;;2.55;;
62050;SDS011;48008;51.204;6.766;2022-10-16T09:35:44;5.38;;;1.65;;
62050;SDS011;48008;51.204;6.766;2022-10-16T09:38:31;14.03;;;4.77;;
62050;SDS011;48008;51.204;6.766;2022-10-16T09:41:00;8.38;;;1.80;;
62050;SDS011;48008;51.204;6.766;2022-10-16T09:43:40;10.90;;;1.98;;
62050;SDS011;48008;51.204;6.766;2022-10-16T09:46:26;6.78;;;1.73;;
62050;SDS011;48008;51.204;6.766;2022-10-16T09:48:57;12.63;;;1.90;;
62050;SDS011;48008;51.204;6.766;2022-10-16T09:51:27;11.65;;;1.90;;
62050;SDS011;48008;51.204;6.766;2022-10-16T09:53:57;7.05;;;1.70;;
62050;SDS011;48008;51.204;6.766;2022-10-16T09:56:30;9.57;;;1.57;;
62050;SDS011;48008;51.204;6.766;2022-10-16T09:59:00;8.70;;;1.90;;
62050;SDS011;48008;51.204;6.766;2022-10-16T10:01:30;7.55;;;1.48;;
62050;SDS011;48008;51.204;6.766;2022-10-16T10:04:03;8.75;;;1.65;;
62050;SDS011;48008;51.204;6.766;2022-10-16T10:06:31;8.43;;;1.70;;
62050;SDS011;48008;51.204;6.766;2022-10-16T10:11:56;4.65;;;1.73;;
62050;SDS011;48008;51.204;6.766;2022-10-16T10:14:35;6.68;;;1.52;;
62050;SDS011;48008;51.204;6.766;2022-10-16T10:19:38;10.40;;;1.90;;
62050;SDS011;48008;51.204;6.766;2022-10-16T10:22:16;10.38;;;1.80;;
62050;SDS011;48008;51.204;6.766;2022-10-16T10:33:28;6.15;;;1.70;;
62050;SDS011;48008;51.204;6.766;2022-10-16T10:36:08;6.97;;;1.90;;
62050;SDS011;48008;51.204;6.766;2022-10-16T10:38:53;7.93;;;1.70;;
62050;SDS011;48008;51.204;6.766;2022-10-16T10:42:05;6.38;;;1.80;;
62050;SDS011;48008;51.204;6.766;2022-10-16T10:44:32;6.30;;;1.45;;
62050;SDS011;48008;51.204;6.766;2022-10-16T10:49:48;8.70;;;1.90;;
62050;SDS011;48008;51.204;6.766;2022-10-16T11:01:28;9.68;;;1.77;;
62050;SDS011;48008;51.204;6.766;2022-10-16T11:04:25;7.38;;;2.10;;
62050;SDS011;48008;51.204;6.766;2022-10-16T11:07:19;9.25;;;1.73;;
62050;SDS011;48008;51.204;6.766;2022-10-16T11:09:53;6.13;;;1.75;;
62050;SDS011;48008;51.204;6.766;2022-10-16T11:12:26;6.50;;;1.65;;
62050;SDS011;48008;51.204;6.766;2022-10-16T11:15:00;6.43;;;1.55;;
62050;SDS011;48008;51.204;6.766;2022-10-16T11:17:40;9.27;;;1.70;;
62050;SDS011;48008;51.204;6.766;2022-10-16T11:20:16;8.60;;;1.45;;
62050;SDS011;48008;51.204;6.766;2022-10-16T11:22:48;5.05;;;1.50;;
62050;SDS011;48008;51.204;6.766;2022-10-16T11:25:21;5.63;;;1.63;;
62050;SDS011;48008;51.204;6.766;2022-10-16T11:30:45;8.98;;;1.88;;
62050;SDS011;48008;51.204;6.766;2022-10-16T11:36:10;7.25;;;1.65;;
62050;SDS011;48008;51.204;6.766;2022-10-16T11:38:47;9.57;;;1.60;;
62050;SDS011;48008;51.204;6.766;2022-10-16T11:41:49;8.35;;;1.60;;
62050;SDS011;48008;51.204;6.766;2022-10-16T11:44:38;6.28;;;1.50;;
62050;SDS011;48008;51.204;6.766;2022-10-16T11:47:38;7.35;;;1.60;;
62050;SDS011;48008;51.204;6.766;2022-10-16T11:50:28;7.97;;;1.60;;
62050;SDS011;48008;51.204;6.766;2022-10-16T11:53:18;5.18;;;1.50;;
62050;SDS011;48008;51.204;6.766;2022-10-16T11:56:01;4.67;;;1.40;;
62050;SDS011;48008;51.204;6.766;2022-10-16T11:59:02;5.05;;;1.40;;
62050;SDS011;48008;51.204;6.766;2022-10-16T12:04:26;7.13;;;1.75;;
62050;SDS011;48008;51.204;6.766;2022-10-16T12:07:08;7.68;;;1.75;;
62050;SDS011;48008;51.204;6.766;2022-10-16T12:09:38;7.90;;;2.10;;
62050;SDS011;48008;51.204;6.766;2022-10-16T12:12:38;8.70;;;1.73;;
62050;SDS011;48008;51.204;6.766;2022-10-16T12:15:19;9.43;;;1.95;;
62050;SDS011;48008;51.204;6.766;2022-10-16T12:17:55;5.85;;;1.50;;
62050;SDS011;48008;51.204;6.766;2022-10-16T12:20:25;5.32;;;1.50;;
62050;SDS011;48008;51.204;6.766;2022-10-16T12:22:59;7.13;;;1.45;;
62050;SDS011;48008;51.204;6.766;2022-10-16T12:27:57;6.20;;;1.52;;
62050;SDS011;48008;51.204;6.766;2022-10-16T12:30:27;7.30;;;1.50;;
62050;SDS011;48008;51.204;6.766;2022-10-16T12:32:58;5.63;;;1.50;;
62050;SDS011;48008;51.204;6.766;2022-10-16T12:35:29;7.85;;;1.65;;
62050;SDS011;48008;51.204;6.766;2022-10-16T12:38:07;10.52;;;1.63;;
62050;SDS011;48008;51.204;6.766;2022-10-16T12:40:53;7.43;;;1.50;;
62050;SDS011;48008;51.204;6.766;2022-10-16T12:43:25;7.88;;;1.40;;
62050;SDS011;48008;51.204;6.766;2022-10-16T12:46:03;6.05;;;1.60;;
62050;SDS011;48008;51.204;6.766;2022-10-16T12:48:32;4.22;;;1.58;;
62050;SDS011;48008;51.204;6.766;2022-10-16T12:51:10;10.10;;;1.95;;
62050;SDS011;48008;51.204;6.766;2022-10-16T12:53:38;8.63;;;1.90;;
62050;SDS011;48008;51.204;6.766;2022-10-16T12:56:22;8.18;;;1.50;;
62050;SDS011;48008;51.204;6.766;2022-10-16T12:58:58;10.60;;;1.70;;
62050;SDS011;48008;51.204;6.766;2022-10-16T13:01:36;5.55;;;1.58;;
62050;SDS011;48008;51.204;6.766;2022-10-16T13:04:36;6.40;;;1.53;;
62050;SDS011;48008;51.204;6.766;2022-10-16T13:10:02;4.55;;;1.35;;
62050;SDS011;48008;51.204;6.766;2022-10-16T13:12:47;6.97;;;1.60;;
62050;SDS011;48008;51.204;6.766;2022-10-16T13:16:02;6.10;;;2.08;;
62050;SDS011;48008;51.204;6.766;2022-10-16T13:18:38;7.00;;;1.38;;
62050;SDS011;48008;51.204;6.766;2022-10-16T13:21:32;9.25;;;1.52;;
62050;SDS011;48008;51.204;6.766;2022-10-16T13:27:29;21.25;;;1.80;;
62050;SDS011;48008;51.204;6.766;2022-10-16T13:30:19;8.70;;;1.55;;
62050;SDS011;48008;51.204;6.766;2022-10-16T13:32:56;7.72;;;1.65;;
62050;SDS011;48008;51.204;6.766;2022-10-16T13:35:28;5.72;;;1.60;;
62050;SDS011;48008;51.204;6.766;2022-10-16T13:38:12;6.60;;;1.80;;
62050;SDS011;48008;51.204;6.766;2022-10-16T13:40:49;9.68;;;2.10;;
62050;SDS011;48008;51.204;6.766;2022-10-16T13:43:35;10.48;;;1.67;;
62050;SDS011;48008;51.204;6.766;2022-10-16T13:46:07;8.93;;;1.60;;
62050;SDS011;48008;51.204;6.766;2022-10-16T13:48:39;3.70;;;1.30;;
62050;SDS011;48008;51.204;6.766;2022-10-16T13:51:10;4.28;;;1.60;;
62050;SDS011;48008;51.204;6.766;2022-10-16T13:53:43;5.03;;;1.70;;
62050;SDS011;48008;51.204;6.766;2022-10-16T13:56:11;4.32;;;1.40;;
62050;SDS011;48008;51.204;6.766;2022-10-16T13:58:40;9.32;;;1.83;;
62050;SDS011;48008;51.204;6.766;2022-10-16T14:01:24;10.02;;;1.75;;
62050;SDS011;48008;51.204;6.766;2022-10-16T14:03:59;9.65;;;1.98;;
62050;SDS011;48008;51.204;6.766;2022-10-16T14:06:28;5.43;;;1.63;;
62050;SDS011;48008;51.204;6.766;2022-10-16T14:09:00;13.38;;;1.73;;
62050;SDS011;48008;51.204;6.766;2022-10-16T14:11:32;7.65;;;2.00;;
62050;SDS011;48008;51.204;6.766;2022-10-16T14:14:01;6.72;;;1.73;;
62050;SDS011;48008;51.204;6.766;2022-10-16T14:16:30;6.68;;;1.80;;
62050;SDS011;48008;51.204;6.766;2022-10-16T14:19:00;7.32;;;1.85;;
62050;SDS011;48008;51.204;6.766;2022-10-16T14:21:30;8.50;;;2.10;;
62050;SDS011;48008;51.204;6.766;2022-10-16T14:23:58;9.48;;;1.88;;
62050;SDS011;48008;51.204;6.766;2022-10-16T14:26:26;8.27;;;2.30;;
62050;SDS011;48008;51.204;6.766;2022-10-16T14:29:03;6.68;;;2.00;;
62050;SDS011;48008;51.204;6.766;2022-10-16T14:31:37;7.55;;;2.10;;
62050;SDS011;48008;51.204;6.766;2022-10-16T14:34:37;9.30;;;2.10;;
62050;SDS011;48008;51.204;6.766;2022-10-16T14:37:00;6.90;;;1.90;;
62050;SDS011;48008;51.204;6.766;2022-10-16T14:39:38;11.63;;;1.80;;
62050;SDS011;48008;51.204;6.766;2022-10-16T14:42:13;8.48;;;1.90;;
62050;SDS011;48008;51.204;6.766;2022-10-16T14:44:43;8.63;;;2.00;;
62050;SDS011;48008;51.204;6.766;2022-10-16T14:47:13;5.57;;;1.80;;
62050;SDS011;48008;51.204;6.766;2022-10-16T14:49:42;11.00;;;1.95;;
62050;SDS011;48008;51.204;6.766;2022-10-16T14:52:11;8.68;;;2.05;;
62050;SDS011;48008;51.204;6.766;2022-10-16T14:54:40;7.18;;;1.83;;
62050;SDS011;48008;51.204;6.766;2022-10-16T14:57:15;7.95;;;1.98;;
62050;SDS011;48008;51.204;6.766;2022-10-16T14:59:44;9.23;;;2.40;;
62050;SDS011;48008;51.204;6.766;2022-10-16T15:04:49;7.32;;;2.00;;
62050;SDS011;48008;51.204;6.766;2022-10-16T15:07:16;6.78;;;2.25;;
62050;SDS011;48008;51.204;6.766;2022-10-16T15:09:43;6.65;;;2.42;;
62050;SDS011;48008;51.204;6.766;2022-10-16T15:12:10;7.78;;;2.00;;
62050;SDS011;48008;51.204;6.766;2022-10-16T15:14:37;7.07;;;1.90;;
62050;SDS011;48008;51.204;6.766;2022-10-16T15:17:03;10.27;;;2.40;;
62050;SDS011;48008;51.204;6.766;2022-10-16T15:19:30;8.07;;;2.10;;
62050;SDS011;48008;51.204;6.766;2022-10-16T15:21:58;7.18;;;1.90;;
62050;SDS011;48008;51.204;6.766;2022-10-16T15:24:24;8.68;;;2.17;;
62050;SDS011;48008;51.204;6.766;2022-10-16T15:26:51;9.20;;;1.90;;
62050;SDS011;48008;51.204;6.766;2022-10-16T15:29:18;8.90;;;2.38;;
62050;SDS011;48008;51.204;6.766;2022-10-16T15:31:45;10.52;;;2.17;;
62050;SDS011;48008;51.204;6.766;2022-10-16T15:34:14;9.43;;;2.55;;
62050;SDS011;48008;51.204;6.766;2022-10-16T15:36:41;11.57;;;2.20;;
62050;SDS011;48008;51.204;6.766;2022-10-16T15:39:16;10.70;;;2.70;;
62050;SDS011;48008;51.204;6.766;2022-10-16T15:41:47;9.82;;;2.92;;
62050;SDS011;48008;51.204;6.766;2022-10-16T15:44:17;9.57;;;2.50;;
62050;SDS011;48008;51.204;6.766;2022-10-16T15:46:44;9.80;;;2.53;;
62050;SDS011;48008;51.204;6.766;2022-10-16T15:49:12;11.30;;;2.58;;
62050;SDS011;48008;51.204;6.766;2022-10-16T15:51:39;9.20;;;2.45;;
62050;SDS011;48008;51.204;6.766;2022-10-16T15:54:07;7.57;;;2.00;;
62050;SDS011;48008;51.204;6.766;2022-10-16T15:56:34;10.18;;;2.38;;
62050;SDS011;48008;51.204;6.766;2022-10-16T15:59:03;7.35;;;2.30;;
62050;SDS011;48008;51.204;6.766;2022-10-16T16:01:32;11.68;;;2.47;;
62050;SDS011;48008;51.204;6.766;2022-10-16T16:04:01;13.50;;;2.50;;
62050;SDS011;48008;51.204;6.766;2022-10-16T16:06:30;10.63;;;2.60;;
62050;SDS011;48008;51.204;6.766;2022-10-16T16:08:58;8.82;;;2.63;;
62050;SDS011;48008;51.204;6.766;2022-10-16T16:11:26;9.50;;;2.40;;